Spruce, Michigan
Current Conditions -  °F | °C
As of 8:54 AM on Friday 31 Oct 2014 (Local Time) from KAPN Reporting Station
Light Snow Light Snow  
Wind Chill: 23°   Ceiling: 1100
Heat Index: 35°   Visibility: 5mi
Dew Point: 33°   Wind: 25mph
Humidity: 92%   Direction: 20°NNE
Pressure: 29.98"   Gusts: 36mph
Location:  44.84°N, 83.47°W
Report Text: KAPN 311254Z AUTO 02022G31KT 5SM -SN BR BKN011 OVC017 02/01 A2998 RMK AO2 PK WND 01033/1157 RAE17SNB1159 SLP160 P0003 T00170006 TSNO
Loading
Personal Weather Stations






























Interactive Weather Map
Tropical Storm Tracking
New forecast layout! Learn more

10-Day Weather Forecast

Advertisements
Track Severe Weather on mobile